Time;durP1;ratioP1;P1;durP2;ratioP2;P2;SDS_P1;SDS_P2;PMS_P1;PMS_P2;Temp;Humidity;BMP_temperature;BMP_pressure;BME280_temperature;BME280_humidity;BME280_pressure;Samples;Min_cycle;Max_cycle;Signal;HPM_P1;HPM_P2
2022/10/14 00:00:41;;;;;;;1.40;1.23;;;;;;;10.62;100.00;102023.69;10606140;27;20126;-77
2022/10/14 00:05:42;;;;;;;3.35;1.27;;;;;;;10.57;100.00;102027.78;10610897;27;20551;-77
2022/10/14 00:10:46;;;;;;;7.72;1.70;;;;;;;10.48;100.00;102025.66;10624823;27;20070;-77
2022/10/14 00:15:47;;;;;;;0.95;0.75;;;;;;;10.40;100.00;102016.72;10616712;27;20397;-77
2022/10/14 00:20:59;;;;;;;1.30;0.95;;;;;;;10.49;100.00;102008.53;10624603;27;20043;-77
2022/10/14 00:26:02;;;;;;;1.40;0.82;;;;;;;10.47;100.00;101995.56;10593464;27;20047;-77
2022/10/14 00:31:05;;;;;;;1.13;0.68;;;;;;;10.21;100.00;101999.50;10613925;27;20043;-77
2022/10/14 00:36:10;;;;;;;1.20;0.70;;;;;;;10.13;100.00;102003.44;10599850;27;20039;-77
2022/10/14 00:41:19;;;;;;;2.40;1.25;;;;;;;10.01;100.00;102024.38;10604563;27;20039;-77
2022/10/14 00:46:22;;;;;;;1.70;1.10;;;;;;;9.89;100.00;102041.81;10595440;27;20505;-77
2022/10/14 00:51:29;;;;;;;1.33;1.08;;;;;;;9.77;100.00;102045.59;10623159;27;20444;-77
2022/10/14 00:56:31;;;;;;;1.70;0.88;;;;;;;9.87;100.00;102049.47;10605006;27;20463;-77
2022/10/14 01:01:33;;;;;;;1.23;0.90;;;;;;;9.75;100.00;102046.31;10587997;27;20047;-77
2022/10/14 01:06:40;;;;;;;1.50;1.30;;;;;;;9.57;100.00;102056.63;10601491;27;20095;-77
2022/10/14 01:12:22;;;;;;;3.08;1.35;;;;;;;9.62;100.00;102050.00;10586828;27;20035;-77
2022/10/14 01:18:04;;;;;;;0.82;0.50;;;;;;;9.75;100.00;102049.75;10592834;27;20065;-77
2022/10/14 01:23:33;;;;;;;0.88;0.82;;;;;;;9.71;100.00;102050.44;10613567;27;20409;-77
2022/10/14 01:28:57;;;;;;;0.63;0.57;;;;;;;9.69;100.00;102059.78;10619648;27;20043;-77
2022/10/14 01:34:01;;;;;;;0.60;0.45;;;;;;;9.67;100.00;102045.94;10574011;27;20453;-77
2022/10/14 01:39:18;;;;;;;1.02;0.90;;;;;;;9.68;100.00;102037.41;10599245;27;20069;-77
2022/10/14 01:44:23;;;;;;;0.77;0.77;;;;;;;9.63;100.00;102028.59;10599538;27;20047;-77
2022/10/14 01:49:30;;;;;;;1.02;0.77;;;;;;;9.69;100.00;102031.47;10594100;27;20047;-77
2022/10/14 01:54:37;;;;;;;0.20;0.20;;;;;;;9.65;100.00;102019.25;10580543;27;20095;-77
2022/10/14 01:59:41;;;;;;;0.43;0.32;;;;;;;9.67;100.00;102026.25;10609468;27;20088;-77
2022/10/14 02:04:42;;;;;;;0.65;0.43;;;;;;;9.65;100.00;102011.53;10594888;27;20035;-77
2022/10/14 02:09:57;;;;;;;2.38;1.00;;;;;;;9.66;100.00;102008.16;10614350;27;20063;-77
2022/10/14 02:15:20;;;;;;;0.68;0.55;;;;;;;9.65;100.00;102006.38;10580157;27;20418;-77
2022/10/14 02:20:34;;;;;;;1.60;0.90;;;;;;;9.56;100.00;102011.09;10611144;27;20062;-77
2022/10/14 02:25:43;;;;;;;3.40;1.10;;;;;;;9.56;100.00;101995.66;10600478;28;20375;-77
2022/10/14 02:30:52;;;;;;;1.98;0.85;;;;;;;9.69;100.00;101988.59;10599300;28;20094;-76
2022/10/14 02:35:55;;;;;;;1.17;1.08;;;;;;;9.60;100.00;101995.91;10594253;28;20074;-77
2022/10/14 02:41:00;;;;;;;1.05;0.60;;;;;;;9.52;100.00;101995.50;10590000;28;20040;-77
2022/10/14 02:46:03;;;;;;;1.80;1.27;;;;;;;9.57;100.00;101992.28;10619132;27;20117;-77
2022/10/14 02:51:05;;;;;;;1.85;0.75;;;;;;;9.65;100.00;101993.50;10599327;28;20425;-77
2022/10/14 02:56:07;;;;;;;0.63;0.55;;;;;;;9.53;100.00;101989.56;10595549;28;20078;-77
2022/10/14 03:01:09;;;;;;;0.82;0.40;;;;;;;9.60;100.00;101992.41;10579172;28;20134;-77
2022/10/14 03:06:12;;;;;;;0.73;0.65;;;;;;;9.46;100.00;101984.94;10598706;28;20510;-78
2022/10/14 03:11:14;;;;;;;1.17;0.52;;;;;;;9.58;100.00;101988.88;10597234;28;20070;-77
2022/10/14 03:16:16;;;;;;;0.90;0.75;;;;;;;9.65;100.00;101980.66;10592917;28;20039;-77
2022/10/14 03:21:19;;;;;;;1.05;0.40;;;;;;;9.64;100.00;101986.63;10609657;28;20031;-77
2022/10/14 03:26:20;;;;;;;2.33;1.35;;;;;;;9.66;100.00;101985.00;10614002;28;20043;-77
2022/10/14 03:31:22;;;;;;;2.38;0.95;;;;;;;9.67;100.00;101982.50;10592546;27;20031;-77
2022/10/14 03:36:46;;;;;;;1.02;0.68;;;;;;;9.75;100.00;101975.13;10599623;27;20043;-77
2022/10/14 03:41:48;;;;;;;0.63;0.55;;;;;;;9.72;100.00;101967.25;10596058;27;20301;-77
2022/10/14 03:46:55;;;;;;;1.88;0.98;;;;;;;9.66;100.00;101961.81;10605129;27;20173;-77
2022/10/14 03:52:03;;;;;;;2.53;1.23;;;;;;;9.76;100.00;101953.72;10595770;27;20107;-77
2022/10/14 03:57:08;;;;;;;1.52;1.02;;;;;;;9.71;100.00;101944.94;10595210;27;20463;-77
2022/10/14 04:02:17;;;;;;;4.77;2.67;;;;;;;9.68;100.00;101939.63;10605104;27;20042;-77
2022/10/14 04:07:19;;;;;;;0.45;0.45;;;;;;;9.66;100.00;101923.22;10582313;27;20598;-76
2022/10/14 04:12:27;;;;;;;2.08;1.73;;;;;;;9.67;100.00;101923.31;10598654;27;20041;-77
2022/10/14 04:17:41;;;;;;;3.70;1.52;;;;;;;9.73;100.00;101925.28;10606080;27;20047;-77
2022/10/14 04:22:49;;;;;;;1.73;0.95;;;;;;;9.84;100.00;101936.97;10598837;27;20031;-77
2022/10/14 04:27:51;;;;;;;2.83;1.73;;;;;;;9.97;100.00;101942.66;10605633;27;20047;-77
2022/10/14 04:32:55;;;;;;;2.13;1.35;;;;;;;10.09;100.00;101947.47;10598506;27;20031;-77
2022/10/14 04:37:56;;;;;;;6.32;2.42;;;;;;;10.20;100.00;101971.13;10590902;27;20069;-77
2022/10/14 04:43:02;;;;;;;14.15;1.92;;;;;;;10.28;100.00;101969.78;10578392;27;20126;-77
2022/10/14 04:48:10;;;;;;;3.70;2.00;;;;;;;10.38;100.00;101968.50;10597662;27;20039;-77
2022/10/14 04:53:15;;;;;;;2.17;1.33;;;;;;;10.46;100.00;101973.16;10602966;27;20460;-78
2022/10/14 04:58:34;;;;;;;7.03;2.63;;;;;;;10.55;100.00;101979.53;10598121;27;20051;-78
2022/10/14 05:03:36;;;;;;;3.55;1.65;;;;;;;10.62;100.00;101968.69;10604320;27;20497;-78
2022/10/14 05:08:37;;;;;;;2.38;1.48;;;;;;;10.71;100.00;101975.94;10590828;27;20043;-77
2022/10/14 05:13:42;;;;;;;2.13;1.77;;;;;;;10.83;100.00;101981.63;10600808;27;20039;-78
2022/10/14 05:18:44;;;;;;;5.78;1.98;;;;;;;10.84;100.00;101985.06;10590420;27;20679;-78
2022/10/14 05:24:19;;;;;;;7.28;1.38;;;;;;;10.90;100.00;101978.47;10600677;27;20563;-78
2022/10/14 05:29:22;;;;;;;5.63;2.15;;;;;;;10.95;100.00;101981.25;10594366;27;20059;-77
2022/10/14 05:34:25;;;;;;;3.10;2.05;;;;;;;11.04;100.00;101981.63;10560253;27;20428;-77
2022/10/14 05:39:28;;;;;;;2.85;2.35;;;;;;;11.06;100.00;101968.78;10586509;27;20043;-78
2022/10/14 05:44:30;;;;;;;6.53;2.67;;;;;;;11.06;100.00;101969.66;10601801;27;20039;-78
2022/10/14 05:49:32;;;;;;;3.47;2.47;;;;;;;11.11;100.00;101968.19;10602677;27;20044;-78
2022/10/14 05:54:37;;;;;;;5.60;1.65;;;;;;;11.16;100.00;101970.03;10591615;27;20108;-78
2022/10/14 05:59:41;;;;;;;5.40;1.80;;;;;;;11.22;100.00;101975.44;10602578;27;20069;-76
2022/10/14 06:04:43;;;;;;;1.73;1.25;;;;;;;11.31;100.00;101970.66;10618557;27;20039;-77
2022/10/14 06:09:44;;;;;;;5.07;2.28;;;;;;;11.36;100.00;101969.13;10620924;27;20529;-77
2022/10/14 06:14:46;;;;;;;3.20;1.65;;;;;;;11.43;100.00;101960.81;10599122;27;20047;-77
2022/10/14 06:19:47;;;;;;;2.33;1.55;;;;;;;11.53;100.00;101951.75;10596308;27;20047;-77
2022/10/14 06:24:49;;;;;;;4.68;2.65;;;;;;;11.61;100.00;101949.47;10601364;27;20126;-77
2022/10/14 06:29:50;;;;;;;7.22;2.38;;;;;;;11.65;100.00;101966.84;10619477;27;20467;-77
2022/10/14 06:34:52;;;;;;;4.20;1.95;;;;;;;11.72;100.00;101961.09;10618975;28;20085;-78
2022/10/14 06:39:53;;;;;;;3.08;1.73;;;;;;;11.80;100.00;101965.66;10601477;28;20473;-77
2022/10/14 06:44:55;;;;;;;2.70;1.10;;;;;;;11.88;100.00;101967.72;10613532;27;20086;-78
2022/10/14 06:49:57;;;;;;;5.68;2.25;;;;;;;11.91;100.00;101966.94;10606875;27;20098;-78
2022/10/14 06:54:58;;;;;;;4.10;2.15;;;;;;;11.97;100.00;101958.59;10598436;28;20035;-78
2022/10/14 07:00:00;;;;;;;9.57;3.85;;;;;;;12.01;100.00;101955.28;10597571;28;20053;-77
2022/10/14 07:05:05;;;;;;;15.45;1.40;;;;;;;12.10;100.00;101967.66;10601127;27;20039;-78
2022/10/14 07:10:07;;;;;;;2.10;1.40;;;;;;;12.08;100.00;101964.16;10623807;27;20078;-77
2022/10/14 07:15:09;;;;;;;4.93;2.03;;;;;;;12.17;100.00;101961.91;10609336;27;20462;-77
2022/10/14 07:20:11;;;;;;;3.40;1.88;;;;;;;12.22;100.00;101970.69;10608845;27;20067;-77
2022/10/14 07:25:12;;;;;;;3.40;1.42;;;;;;;12.30;100.00;101969.28;10621694;27;20039;-77
2022/10/14 07:30:14;;;;;;;1.98;1.23;;;;;;;12.40;100.00;101975.63;10615505;27;20110;-78
2022/10/14 07:35:18;;;;;;;3.13;1.42;;;;;;;12.40;100.00;101987.69;10609067;27;20043;-79
2022/10/14 07:40:20;;;;;;;2.53;1.70;;;;;;;12.47;100.00;101984.50;10612885;27;20122;-78
2022/10/14 07:45:22;;;;;;;4.53;1.63;;;;;;;12.53;100.00;101983.00;10617885;27;20050;-78
2022/10/14 07:50:23;;;;;;;4.85;1.65;;;;;;;12.63;100.00;101973.84;10605174;27;20039;-78
2022/10/14 07:55:25;;;;;;;2.45;1.65;;;;;;;12.63;100.00;101973.84;10618513;27;20096;-78
2022/10/14 08:00:26;;;;;;;2.75;1.58;;;;;;;12.68;100.00;101977.50;10605927;27;20130;-79
2022/10/14 08:05:28;;;;;;;2.53;1.60;;;;;;;12.73;100.00;101976.75;10623475;27;20050;-79
2022/10/14 08:10:44;;;;;;;0.85;0.73;;;;;;;12.79;100.00;101969.19;10601173;27;20138;-79
2022/10/14 08:15:46;;;;;;;1.00;0.82;;;;;;;12.85;100.00;101961.66;10600368;27;20134;-79
2022/10/14 08:20:47;;;;;;;1.10;0.75;;;;;;;12.90;100.00;101974.72;10622822;27;20067;-79
2022/10/14 08:25:49;;;;;;;2.38;0.63;;;;;;;12.93;100.00;101967.94;10622503;27;20107;-79
2022/10/14 08:30:52;;;;;;;1.58;0.70;;;;;;;12.89;100.00;101960.94;10589115;27;20050;-79
2022/10/14 08:35:53;;;;;;;0.85;0.50;;;;;;;12.91;100.00;101960.97;10616713;27;20046;-79
2022/10/14 08:41:06;;;;;;;4.95;1.13;;;;;;;12.93;100.00;101960.19;10603365;27;20406;-79
2022/10/14 08:46:19;;;;;;;0.93;0.73;;;;;;;13.01;100.00;101947.53;10603177;27;20075;-79
2022/10/14 08:51:21;;;;;;;0.40;0.28;;;;;;;13.07;100.00;101944.28;10621356;27;20490;-79
2022/10/14 08:56:23;;;;;;;1.48;1.05;;;;;;;13.15;100.00;101937.59;10604134;27;20071;-79
2022/10/14 09:01:31;;;;;;;0.70;0.60;;;;;;;13.15;100.00;101948.84;10615891;27;20122;-79
2022/10/14 09:06:34;;;;;;;2.72;1.38;;;;;;;13.16;100.00;101940.25;10613627;27;20066;-80
2022/10/14 09:11:41;;;;;;;2.78;0.95;;;;;;;13.25;100.00;101929.31;10625577;27;20031;-79
2022/10/14 09:16:45;;;;;;;1.50;1.08;;;;;;;13.38;100.00;101916.75;10629042;27;20047;-79
2022/10/14 09:21:54;;;;;;;1.75;1.00;;;;;;;13.33;100.00;101901.97;10603075;27;20043;-79
2022/10/14 09:27:00;;;;;;;0.77;0.57;;;;;;;13.32;100.00;101886.41;10590570;27;20587;-79
2022/10/14 09:32:06;;;;;;;0.80;0.80;;;;;;;13.38;100.00;101878.84;10602823;27;20042;-80
2022/10/14 09:37:29;;;;;;;0.65;0.45;;;;;;;13.45;100.00;101879.88;10614909;27;20057;-79
2022/10/14 09:42:43;;;;;;;1.45;0.90;;;;;;;13.48;100.00;101865.31;10617149;27;20383;-79
2022/10/14 09:47:52;;;;;;;5.18;1.27;;;;;;;13.49;100.00;101856.72;10611562;27;20043;-80
2022/10/14 09:53:01;;;;;;;1.95;0.60;;;;;;;13.53;100.00;101847.34;10602433;27;20035;-79
2022/10/14 09:58:15;;;;;;;0.80;0.70;;;;;;;13.48;100.00;101828.22;10619066;27;20126;-80
2022/10/14 10:03:26;;;;;;;1.33;0.85;;;;;;;13.52;100.00;101817.09;10599432;27;20532;-80
2022/10/14 10:08:28;;;;;;;0.60;0.60;;;;;;;13.61;100.00;101794.06;10618296;27;20440;-79
2022/10/14 10:13:43;;;;;;;2.83;0.95;;;;;;;13.68;100.00;101789.06;10620437;27;20043;-79
2022/10/14 10:18:45;;;;;;;0.20;0.20;;;;;;;13.70;100.00;101782.22;10611098;27;20047;-79
2022/10/14 10:23:54;;;;;;;2.83;0.80;;;;;;;13.76;100.00;101761.66;10612760;27;20039;-80
2022/10/14 10:28:57;;;;;;;1.25;0.43;;;;;;;13.78;100.00;101749.63;10611148;27;20068;-79
2022/10/14 10:34:11;;;;;;;0.80;0.50;;;;;;;13.71;100.00;101733.03;10601525;27;20044;-79
2022/10/14 10:39:37;;;;;;;1.25;0.77;;;;;;;13.74;100.00;101732.25;10622316;27;20046;-80
2022/10/14 10:45:02;;;;;;;0.50;0.50;;;;;;;13.73;100.00;101740.88;10610491;27;20126;-79
2022/10/14 10:50:23;;;;;;;0.40;0.35;;;;;;;13.70;100.00;101756.31;10609352;27;20043;-79
2022/10/14 10:55:38;;;;;;;1.38;0.47;;;;;;;13.67;100.00;101756.22;10606145;27;20049;-80
2022/10/14 11:00:53;;;;;;;1.17;0.85;;;;;;;13.68;100.00;101757.97;10609668;27;20092;-79
2022/10/14 11:12:01;;;;;;;0.98;0.63;;;;;;;13.81;100.00;101754.91;10598000;27;20122;-79
2022/10/14 11:12:14;;;;;;;0.95;0.73;;;;;;;14.04;100.00;101746.81;10620407;27;20119;-80
2022/10/14 11:17:39;;;;;;;1.42;0.95;;;;;;;14.04;100.00;101742.53;10612617;27;20035;-79
2022/10/14 11:23:03;;;;;;;2.08;0.63;;;;;;;14.04;100.00;101726.09;10607280;27;20458;-80
2022/10/14 11:28:23;;;;;;;0.80;0.57;;;;;;;14.16;100.00;101703.09;10604227;27;20051;-79
2022/10/14 11:33:55;;;;;;;1.02;0.90;;;;;;;14.22;100.00;101684.22;10603731;27;20038;-79
2022/10/14 11:39:10;;;;;;;1.55;0.90;;;;;;;14.37;100.00;101657.75;10620509;27;20126;-79
2022/10/14 11:44:33;;;;;;;0.70;0.70;;;;;;;14.26;100.00;101632.47;10622813;27;20035;-79
2022/10/14 11:50:01;;;;;;;0.55;0.55;;;;;;;14.30;100.00;101619.59;10601619;27;20486;-80
2022/10/14 11:55:12;;;;;;;1.33;0.93;;;;;;;14.36;100.00;101588.59;10583926;27;20498;-78
2022/10/14 12:00:21;;;;;;;0.38;0.30;;;;;;;14.24;100.00;101547.75;10621294;27;20221;-78
2022/10/14 12:05:58;;;;;;;1.00;0.93;;;;;;;14.21;100.00;101538.19;10618382;27;20406;-78
2022/10/14 12:11:24;;;;;;;1.02;0.80;;;;;;;14.22;100.00;101542.53;10620554;27;20386;-78
2022/10/14 12:16:26;;;;;;;3.72;1.83;;;;;;;14.19;100.00;101533.84;10621388;27;20039;-78
2022/10/14 12:21:45;;;;;;;2.38;0.90;;;;;;;14.10;100.00;101513.78;10600914;27;20092;-78
2022/10/14 12:26:54;;;;;;;2.20;0.90;;;;;;;14.08;100.00;101513.75;10621481;27;20043;-78
2022/10/14 12:32:02;;;;;;;0.60;0.60;;;;;;;14.10;100.00;101529.34;10624996;27;20045;-78
2022/10/14 12:37:22;;;;;;;2.95;0.85;;;;;;;14.16;100.00;101529.47;10632431;27;20485;-78
2022/10/14 12:42:34;;;;;;;0.63;0.63;;;;;;;14.10;100.00;101524.16;10636844;27;20436;-77
2022/10/14 12:47:40;;;;;;;1.13;0.73;;;;;;;14.15;100.00;101504.41;10592630;27;20071;-78
2022/10/14 12:52:45;;;;;;;0.15;0.15;;;;;;;14.10;100.00;101506.03;10597201;27;20146;-78
2022/10/14 12:58:00;;;;;;;0.50;0.50;;;;;;;14.20;100.00;101526.09;10616270;27;20130;-78
2022/10/14 13:03:05;;;;;;;1.25;0.85;;;;;;;14.20;100.00;101557.19;10599130;27;20477;-78
2022/10/14 13:08:19;;;;;;;1.38;0.68;;;;;;;14.31;100.00;101567.78;10618829;27;20031;-78
2022/10/14 13:13:37;;;;;;;2.38;1.27;;;;;;;14.23;100.00;101556.38;10600741;27;20075;-77
2022/10/14 13:18:38;;;;;;;1.00;0.85;;;;;;;14.45;100.00;101560.28;10593087;27;20411;-78
2022/10/14 13:23:44;;;;;;;4.82;1.40;;;;;;;14.43;100.00;101554.19;10617728;27;20047;-78
2022/10/14 13:29:01;;;;;;;0.50;0.40;;;;;;;14.37;100.00;101547.16;10596010;27;20516;-78
2022/10/14 13:34:42;;;;;;;1.10;0.82;;;;;;;14.40;100.00;101541.19;10581297;27;20043;-78
2022/10/14 13:39:44;;;;;;;1.58;1.38;;;;;;;14.43;100.00;101536.03;10588456;27;20059;-79
2022/10/14 13:44:47;;;;;;;0.93;0.82;;;;;;;14.30;100.00;101541.84;10611931;27;20435;-78
2022/10/14 13:49:50;;;;;;;2.17;1.45;;;;;;;14.34;100.00;101535.84;10619303;27;20035;-78
2022/10/14 13:55:16;;;;;;;4.85;1.77;;;;;;;14.31;100.00;101533.22;10618972;27;20470;-78
2022/10/14 14:00:27;;;;;;;1.27;1.00;;;;;;;14.42;100.00;101527.41;10604130;27;20115;-78
2022/10/14 14:05:44;;;;;;;0.52;0.45;;;;;;;14.35;100.00;101520.34;10588158;27;20040;-79
2022/10/14 14:10:51;;;;;;;0.47;0.40;;;;;;;14.32;100.00;101514.25;10598263;27;20046;-78
2022/10/14 14:16:21;;;;;;;2.05;0.98;;;;;;;14.36;100.00;101510.84;10617920;27;20046;-78
2022/10/14 14:21:25;;;;;;;1.13;0.52;;;;;;;14.33;100.00;101516.00;10608429;27;20067;-78
2022/10/14 14:26:34;;;;;;;1.88;0.38;;;;;;;14.32;100.00;101516.81;10594745;27;20061;-77
2022/10/14 14:31:38;;;;;;;1.02;0.80;;;;;;;14.28;100.00;101534.91;10605781;27;20039;-78
2022/10/14 14:37:00;;;;;;;0.73;0.57;;;;;;;14.25;100.00;101540.03;10588783;28;20180;-78
2022/10/14 14:42:23;;;;;;;0.93;0.77;;;;;;;14.35;100.00;101551.47;10598072;28;20046;-79
2022/10/14 14:47:27;;;;;;;0.47;0.30;;;;;;;14.33;100.00;101552.28;10593482;28;20042;-78
2022/10/14 14:52:28;;;;;;;0.32;0.32;;;;;;;14.26;100.00;101551.25;10587848;28;20119;-78
2022/10/14 14:57:30;;;;;;;0.28;0.28;;;;;;;14.26;100.00;101549.53;10598784;28;20043;-78
2022/10/14 15:02:33;;;;;;;0.68;0.57;;;;;;;14.36;100.00;101552.31;10616194;28;20471;-79
2022/10/14 15:07:36;;;;;;;0.50;0.40;;;;;;;14.25;100.00;101555.59;10615277;28;20035;-78
2022/10/14 15:12:40;;;;;;;2.13;0.90;;;;;;;14.37;100.00;101559.25;10616639;28;20097;-78
2022/10/14 15:17:46;;;;;;;1.38;1.10;;;;;;;14.30;100.00;101555.66;10616268;28;20039;-79
2022/10/14 15:22:48;;;;;;;3.50;1.45;;;;;;;14.28;100.00;101554.78;10596842;27;20130;-79
2022/10/14 15:27:55;;;;;;;1.15;0.50;;;;;;;14.28;100.00;101560.81;10622129;27;20038;-79
2022/10/14 15:33:19;;;;;;;0.88;0.38;;;;;;;14.23;100.00;101556.38;10606438;27;20397;-79
2022/10/14 15:38:21;;;;;;;1.15;0.57;;;;;;;14.18;100.00;101553.72;10622302;27;20031;-80
2022/10/14 15:43:25;;;;;;;1.08;0.98;;;;;;;14.17;100.00;101562.31;10613137;27;20092;-78
2022/10/14 15:48:29;;;;;;;1.38;0.70;;;;;;;14.19;100.00;101560.59;10624855;27;20486;-79
2022/10/14 15:53:32;;;;;;;1.75;0.73;;;;;;;14.14;100.00;101562.25;10607304;27;20075;-78
2022/10/14 15:58:34;;;;;;;0.57;0.57;;;;;;;14.20;100.00;101567.53;10600869;27;20082;-78
2022/10/14 16:03:35;;;;;;;0.73;0.45;;;;;;;14.15;100.00;101571.75;10604200;27;20077;-78
2022/10/14 16:08:45;;;;;;;0.38;0.38;;;;;;;14.20;100.00;101564.94;10623811;27;20046;-78
2022/10/14 16:13:48;;;;;;;0.32;0.32;;;;;;;14.23;100.00;101578.00;10606745;27;20129;-78
2022/10/14 16:18:51;;;;;;;0.90;0.38;;;;;;;14.21;100.00;101579.66;10605706;27;20054;-78
2022/10/14 16:23:53;;;;;;;1.30;0.40;;;;;;;14.23;100.00;101562.44;10612548;27;20155;-79
2022/10/14 16:28:55;;;;;;;0.38;0.28;;;;;;;14.21;100.00;101555.47;10594768;27;20049;-78
2022/10/14 16:33:56;;;;;;;1.98;0.32;;;;;;;14.16;100.00;101544.13;10601347;27;20070;-79
2022/10/14 16:39:00;;;;;;;0.00;0.00;;;;;;;14.14;100.00;101541.50;10620542;27;20062;-78
2022/10/14 16:44:03;;;;;;;0.05;0.05;;;;;;;14.05;100.00;101542.19;10618950;27;20047;-78
2022/10/14 16:49:06;;;;;;;0.38;0.38;;;;;;;14.00;100.00;101533.41;10599029;27;20051;-78
2022/10/14 16:54:07;;;;;;;0.25;0.20;;;;;;;13.91;100.00;101523.75;10618527;27;20126;-78
2022/10/14 16:59:11;;;;;;;0.65;0.65;;;;;;;13.92;100.00;101541.03;10632993;27;20102;-78
2022/10/14 17:04:13;;;;;;;0.25;0.10;;;;;;;13.76;100.00;101539.81;10605767;27;20071;-78
2022/10/14 17:09:17;;;;;;;0.40;0.38;;;;;;;13.59;100.00;101552.34;10651666;27;20386;-78
2022/10/14 17:14:21;;;;;;;3.08;0.80;;;;;;;13.72;100.00;101563.03;10592929;27;20043;-78
2022/10/14 17:19:23;;;;;;;1.30;0.65;;;;;;;13.65;100.00;101562.00;10621302;27;20122;-78
2022/10/14 17:24:25;;;;;;;0.32;0.25;;;;;;;13.62;100.00;101562.81;10603146;27;20061;-78
2022/10/14 17:29:28;;;;;;;1.08;0.55;;;;;;;13.61;100.00;101571.41;10620818;27;20051;-78
2022/10/14 17:34:30;;;;;;;1.08;0.43;;;;;;;13.35;100.00;101544.84;10602392;27;20050;-79
2022/10/14 17:39:36;;;;;;;4.50;0.63;;;;;;;13.31;100.00;101530.09;10602894;27;20046;-78
2022/10/14 17:44:37;;;;;;;0.98;0.57;;;;;;;13.16;100.00;101530.56;10601984;27;20123;-79
2022/10/14 17:49:47;;;;;;;1.67;1.30;;;;;;;13.00;100.00;101535.34;10609863;27;20047;-79
2022/10/14 17:54:49;;;;;;;2.25;1.30;;;;;;;12.90;100.00;101538.56;10594416;27;20061;-79
2022/10/14 17:59:51;;;;;;;0.40;0.40;;;;;;;12.87;100.00;101537.59;10614440;27;20070;-78
2022/10/14 18:04:53;;;;;;;9.23;0.77;;;;;;;12.93;100.00;101541.19;10608099;27;20534;-78
2022/10/14 18:09:54;;;;;;;0.60;0.55;;;;;;;12.85;100.00;101553.03;10584577;27;20635;-79
2022/10/14 18:14:56;;;;;;;0.65;0.40;;;;;;;12.78;100.00;101553.72;10601636;27;20045;-78
2022/10/14 18:20:00;;;;;;;1.70;0.93;;;;;;;12.77;100.00;101549.41;10619406;27;20118;-78
2022/10/14 18:25:04;;;;;;;0.57;0.50;;;;;;;12.63;100.00;101541.25;10619663;27;20031;-78
2022/10/14 18:30:06;;;;;;;0.60;0.60;;;;;;;12.49;100.00;101531.41;10581947;27;20043;-79
2022/10/14 18:35:08;;;;;;;1.13;0.90;;;;;;;12.61;100.00;101548.97;10600368;28;20045;-78
2022/10/14 18:40:10;;;;;;;1.05;0.70;;;;;;;12.78;100.00;101553.72;10616135;28;20040;-78
2022/10/14 18:45:11;;;;;;;2.25;0.82;;;;;;;12.78;100.00;101548.53;10610036;27;20553;-79
2022/10/14 18:50:13;;;;;;;2.38;1.02;;;;;;;12.74;100.00;101542.41;10618444;28;20142;-78
2022/10/14 18:55:15;;;;;;;2.75;1.30;;;;;;;12.61;100.00;101533.47;10600788;28;20039;-78
2022/10/14 19:00:16;;;;;;;1.45;0.60;;;;;;;12.64;100.00;101536.13;10622766;27;20070;-78
2022/10/14 19:05:18;;;;;;;1.65;0.90;;;;;;;12.73;100.00;101540.69;10597977;27;20144;-79
2022/10/14 19:10:20;;;;;;;2.20;1.05;;;;;;;12.85;100.00;101545.28;10626886;27;20047;-78
2022/10/14 19:15:25;;;;;;;1.27;0.70;;;;;;;12.51;100.00;101534.03;10626688;27;20050;-79
2022/10/14 19:20:26;;;;;;;1.05;0.70;;;;;;;12.53;100.00;101553.06;10608714;27;20146;-79
2022/10/14 19:25:28;;;;;;;0.63;0.55;;;;;;;12.51;100.00;101549.53;10620920;27;20061;-78
2022/10/14 19:30:31;;;;;;;1.50;0.85;;;;;;;12.22;100.00;101532.34;10626048;27;20046;-78
2022/10/14 19:35:32;;;;;;;1.25;0.63;;;;;;;12.25;100.00;101541.91;10626235;27;20126;-78
2022/10/14 19:40:34;;;;;;;1.17;0.82;;;;;;;12.24;100.00;101547.94;10607607;27;20047;-78
2022/10/14 19:45:39;;;;;;;2.08;1.20;;;;;;;12.29;100.00;101541.19;10622040;27;20080;-78
2022/10/14 19:50:41;;;;;;;1.83;1.13;;;;;;;12.28;100.00;101523.91;10606911;27;20080;-78
2022/10/14 19:55:42;;;;;;;1.63;1.27;;;;;;;12.33;100.00;101512.00;10606868;27;20507;-78
2022/10/14 20:00:44;;;;;;;1.75;1.50;;;;;;;12.30;100.00;101519.69;10599824;27;20116;-78
2022/10/14 20:05:45;;;;;;;2.40;1.63;;;;;;;12.25;100.00;101521.22;10607259;27;20123;-78
2022/10/14 20:10:47;;;;;;;2.17;0.93;;;;;;;12.09;100.00;101524.22;10606562;27;20155;-78
2022/10/14 20:15:53;;;;;;;3.15;1.95;;;;;;;12.02;100.00;101518.88;10624777;27;20047;-78
2022/10/14 20:20:55;;;;;;;3.33;1.40;;;;;;;12.02;100.00;101523.16;10604457;27;20490;-79
2022/10/14 20:26:04;;;;;;;3.15;0.73;;;;;;;12.04;100.00;101527.53;10624779;27;20051;-78
2022/10/14 20:31:08;;;;;;;0.97;0.97;;;;;;;12.04;100.00;101516.34;10624100;27;20047;-78
2022/10/14 20:36:18;;;;;;;3.15;1.65;;;;;;;12.04;100.00;101508.59;10571422;27;20046;-77
2022/10/14 20:41:25;;;;;;;2.17;1.98;;;;;;;11.99;100.00;101499.84;10624015;27;20047;-78
2022/10/14 20:46:28;;;;;;;2.85;0.85;;;;;;;11.86;100.00;101495.97;10621092;27;20126;-77
2022/10/14 20:51:32;;;;;;;4.03;1.15;;;;;;;11.77;100.00;101486.22;10592550;27;20065;-78
2022/10/14 20:56:35;;;;;;;0.80;0.65;;;;;;;11.63;100.00;101485.81;10623295;27;20482;-77
2022/10/14 21:01:49;;;;;;;1.40;0.90;;;;;;;11.53;100.00;101457.97;10620856;27;20077;-78
2022/10/14 21:06:50;;;;;;;1.35;0.68;;;;;;;11.54;100.00;101449.41;10603958;27;20043;-78
2022/10/14 21:11:52;;;;;;;0.20;0.20;;;;;;;11.42;100.00;101452.47;10621957;27;20109;-77
2022/10/14 21:16:58;;;;;;;0.20;0.20;;;;;;;11.30;100.00;101447.81;10578734;27;20039;-77
2022/10/14 21:22:02;;;;;;;1.85;0.90;;;;;;;11.18;100.00;101430.22;10602042;27;20108;-77
2022/10/14 21:27:08;;;;;;;0.85;0.40;;;;;;;11.24;100.00;101426.97;10603387;27;20436;-77
2022/10/14 21:32:09;;;;;;;0.70;0.57;;;;;;;11.21;100.00;101426.88;10622078;27;20043;-77
2022/10/14 21:37:11;;;;;;;0.90;0.38;;;;;;;11.13;100.00;101429.22;10586468;27;20401;-77
2022/10/14 21:42:13;;;;;;;0.00;0.00;;;;;;;11.10;100.00;101424.84;10604016;27;20054;-77
2022/10/14 21:47:14;;;;;;;2.33;0.82;;;;;;;10.90;100.00;101405.28;10603663;27;20054;-77
2022/10/14 21:52:16;;;;;;;0.43;0.35;;;;;;;10.68;100.00;101381.38;10620558;27;20511;-77
2022/10/14 21:57:17;;;;;;;0.30;0.30;;;;;;;10.72;100.00;101385.81;10621878;27;20497;-77
2022/10/14 22:02:19;;;;;;;0.52;0.30;;;;;;;10.66;100.00;101385.59;10602829;27;20074;-76
2022/10/14 22:07:20;;;;;;;0.20;0.20;;;;;;;10.62;100.00;101382.03;10622064;27;20093;-77
2022/10/14 22:12:23;;;;;;;0.50;0.30;;;;;;;10.48;100.00;101380.72;10600074;27;20043;-77
2022/10/14 22:17:24;;;;;;;0.98;0.50;;;;;;;10.40;100.00;101382.16;10602730;27;20051;-77
2022/10/14 22:22:26;;;;;;;0.00;0.00;;;;;;;10.29;100.00;101392.03;10601923;27;20490;-77
2022/10/14 22:27:28;;;;;;;0.90;0.30;;;;;;;10.31;100.00;101388.69;10586064;27;20570;-76
2022/10/14 22:32:29;;;;;;;0.50;0.30;;;;;;;10.22;100.00;101397.81;10620906;27;20213;-76
2022/10/14 22:37:31;;;;;;;0.15;0.15;;;;;;;10.37;100.00;101393.22;10601428;28;20057;-77
2022/10/14 22:42:32;;;;;;;0.40;0.40;;;;;;;10.50;100.00;101399.66;10602788;28;20043;-77
2022/10/14 22:47:37;;;;;;;0.95;0.38;;;;;;;10.56;100.00;101399.00;10596425;28;20071;-77
2022/10/14 22:52:39;;;;;;;1.35;0.57;;;;;;;10.65;100.00;101394.16;10600454;28;20043;-77
2022/10/14 22:57:40;;;;;;;0.57;0.32;;;;;;;10.74;100.00;101394.47;10605219;28;20069;-76
2022/10/14 23:02:42;;;;;;;0.75;0.75;;;;;;;10.82;100.00;101396.41;10600970;28;20042;-77
2022/10/14 23:07:43;;;;;;;3.65;1.17;;;;;;;10.74;100.00;101398.72;10580835;28;20055;-77
2022/10/14 23:12:45;;;;;;;0.57;0.57;;;;;;;10.75;100.00;101400.47;10601629;28;20066;-77